KWWD/WWD METAR and TAF weather

Enter ICAO airport designator
Station Type Date Time Source
KWWD METAR 2020/01/27 16:56 UTC NOAA

KWWD 271656Z AUTO 27009KT 10SM OVC042 08/01 A2978 RMK AO2 SLP086 T00780011


Station Type Date Time Source
KWWD Decoded METAR 2020/01/27 16:56 UTC NOAA

Wildwood, Cape May County Airport, NJ, United States (KWWD) 39-01N 074-55W
Jan 27, 2020 - 11:56 AM EST / 2020.01.27 1656 UTC
Wind: from the W (270 degrees) at 10 MPH (9 KT):0
Visibility: 10 mile(s):0
Sky conditions: overcast
Temperature: 46.0 F (7.8 C)
Dew Point: 34.0 F (1.1 C)
Relative Humidity: 62%
Pressure (altimeter): 29.78 in. Hg (1008 hPa)
ob: KWWD 271656Z AUTO 27009KT 10SM OVC042 08/01 A2978 RMK AO2 SLP086 T00780011
cycle: 17

Station Type Date Time Source
KWWD TAF UTC NOAA

Error!

Example: see airport list